createdAt,value
2023-03-22T00:00:06.330Z,0.00
2023-03-22T00:01:03.973Z,0.00
2023-03-22T00:02:04.011Z,0.00
2023-03-22T00:03:04.134Z,0.00
2023-03-22T00:04:04.151Z,0.00
2023-03-22T00:05:04.892Z,0.00
2023-03-22T00:06:04.198Z,0.00
2023-03-22T00:07:04.264Z,0.00
2023-03-22T00:08:04.295Z,0.00
2023-03-22T00:09:04.388Z,0.00
2023-03-22T00:10:04.440Z,0.00
2023-03-22T00:11:04.439Z,0.00
2023-03-22T00:12:06.299Z,0.00
2023-03-22T00:13:04.530Z,0.00
2023-03-22T00:14:04.578Z,0.00
2023-03-22T00:15:04.653Z,0.00
2023-03-22T00:16:04.777Z,0.00
2023-03-22T00:17:04.712Z,0.00
2023-03-22T00:18:04.764Z,0.00
2023-03-22T00:19:04.797Z,0.00
2023-03-22T00:20:04.899Z,0.00
2023-03-22T00:21:04.890Z,0.00
2023-03-22T00:22:04.957Z,0.00
2023-03-22T00:23:04.991Z,0.00
2023-03-22T00:24:05.042Z,0.00
2023-03-22T00:25:05.116Z,0.00
2023-03-22T00:26:05.146Z,0.00
2023-03-22T00:27:05.216Z,0.00
2023-03-22T00:28:05.226Z,0.00
2023-03-22T00:29:05.271Z,0.00
2023-03-22T00:30:05.320Z,0.00
2023-03-22T00:31:05.420Z,0.00
2023-03-22T00:32:05.456Z,0.00
2023-03-22T00:33:05.487Z,0.00
2023-03-22T00:34:05.533Z,0.00
2023-03-22T00:35:05.555Z,0.00
2023-03-22T00:36:05.607Z,0.00
2023-03-22T00:37:06.109Z,0.00
2023-03-22T00:38:06.148Z,0.00
2023-03-22T00:39:06.160Z,0.00
2023-03-22T00:40:06.195Z,0.00
2023-03-22T00:41:05.837Z,0.00
2023-03-22T00:42:05.874Z,0.00
2023-03-22T00:43:05.959Z,0.00
2023-03-22T00:44:05.967Z,0.00
2023-03-22T00:45:06.033Z,0.00
2023-03-22T00:46:06.125Z,0.00
2023-03-22T00:47:06.158Z,0.00
2023-03-22T00:48:06.169Z,0.00
2023-03-22T00:49:06.213Z,0.00
2023-03-22T00:50:06.264Z,0.00
2023-03-22T00:51:06.314Z,0.00
2023-03-22T00:52:06.375Z,0.00
2023-03-22T00:53:06.394Z,0.00
2023-03-22T00:54:06.436Z,0.00
2023-03-22T00:55:06.525Z,0.00
2023-03-22T00:56:06.527Z,0.00
2023-03-22T00:57:06.625Z,0.00
2023-03-22T00:58:06.623Z,0.00
2023-03-22T00:59:06.675Z,0.00
2023-03-22T01:00:06.730Z,0.00
2023-03-22T01:01:06.810Z,0.00
2023-03-22T01:02:06.847Z,0.00
2023-03-22T01:03:06.912Z,0.00
2023-03-22T01:04:06.906Z,0.00
2023-03-22T01:05:07.908Z,0.00
2023-03-22T01:06:06.991Z,0.00
2023-03-22T01:07:07.076Z,0.00
2023-03-22T01:08:07.089Z,0.00
2023-03-22T01:09:07.181Z,0.00
2023-03-22T01:10:07.204Z,0.00
2023-03-22T01:11:07.241Z,0.00
2023-03-22T01:12:07.288Z,0.00
2023-03-22T01:13:07.325Z,0.00
2023-03-22T01:14:07.409Z,0.00
2023-03-22T01:15:10.338Z,0.00
2023-03-22T01:16:07.518Z,0.00
2023-03-22T01:17:07.514Z,0.00
2023-03-22T01:18:07.593Z,0.00
2023-03-22T01:19:07.648Z,0.00
2023-03-22T01:20:07.654Z,0.00
2023-03-22T01:21:07.697Z,0.00
2023-03-22T01:22:07.758Z,0.00
2023-03-22T01:23:07.789Z,0.00
2023-03-22T01:24:07.876Z,0.00
2023-03-22T01:25:07.931Z,0.00
2023-03-22T01:26:07.945Z,0.00
2023-03-22T01:27:07.978Z,0.00
2023-03-22T01:28:08.028Z,0.00
2023-03-22T01:29:08.071Z,0.00
2023-03-22T01:30:08.176Z,0.00
2023-03-22T01:31:10.660Z,0.00
2023-03-22T01:32:10.679Z,0.00
2023-03-22T01:33:08.266Z,0.00
2023-03-22T01:34:08.319Z,0.00
2023-03-22T01:35:10.756Z,0.00
2023-03-22T01:36:08.445Z,0.00
2023-03-22T01:37:08.449Z,0.00
2023-03-22T01:38:08.506Z,0.00
2023-03-22T01:39:10.813Z,0.00
2023-03-22T01:40:10.863Z,0.00
2023-03-22T01:41:11.411Z,0.00
2023-03-22T01:42:08.724Z,0.00
2023-03-22T01:43:11.013Z,0.00
2023-03-22T01:44:08.777Z,0.00
2023-03-22T01:45:10.992Z,0.00
2023-03-22T01:46:11.049Z,0.00
2023-03-22T01:47:11.044Z,0.00
2023-03-22T01:48:11.118Z,0.00
2023-03-22T01:49:11.944Z,0.00
2023-03-22T01:50:11.125Z,0.00
2023-03-22T01:51:11.155Z,0.00
2023-03-22T01:52:11.185Z,0.00
2023-03-22T01:53:11.925Z,0.00
2023-03-22T01:54:11.233Z,0.00
2023-03-22T01:55:11.916Z,0.00
2023-03-22T01:56:09.351Z,0.00
2023-03-22T01:57:09.400Z,0.00
2023-03-22T01:58:09.481Z,0.00
2023-03-22T01:59:09.488Z,0.00
2023-03-22T02:00:11.335Z,0.00
2023-03-22T02:01:11.408Z,0.00
2023-03-22T02:02:09.654Z,0.00
2023-03-22T02:03:11.405Z,0.00
2023-03-22T02:04:11.466Z,0.00
2023-03-22T02:05:11.408Z,0.00
2023-03-22T02:06:09.810Z,0.00
2023-03-22T02:07:09.899Z,0.00
2023-03-22T02:08:09.900Z,0.00
2023-03-22T02:09:11.491Z,0.00
2023-03-22T02:10:10.042Z,0.00
2023-03-22T02:11:11.547Z,0.00
2023-03-22T02:12:10.095Z,0.00
2023-03-22T02:13:10.913Z,0.00
2023-03-22T02:14:10.188Z,0.00
2023-03-22T02:15:10.249Z,0.00
2023-03-22T02:16:10.348Z,0.00
2023-03-22T02:17:10.319Z,0.00
2023-03-22T02:18:10.404Z,0.00
2023-03-22T02:19:10.444Z,0.00
2023-03-22T02:20:10.473Z,0.00
2023-03-22T02:21:10.502Z,0.00
2023-03-22T02:22:11.148Z,0.00
2023-03-22T02:23:11.173Z,0.00
2023-03-22T02:24:11.193Z,0.00
2023-03-22T02:25:10.691Z,0.00
2023-03-22T02:26:10.761Z,0.00
2023-03-22T02:27:10.772Z,0.00
2023-03-22T02:28:10.866Z,0.00
2023-03-22T02:29:10.871Z,0.00
2023-03-22T02:30:10.926Z,0.00
2023-03-22T02:31:10.982Z,0.00
2023-03-22T02:32:11.016Z,0.00
2023-03-22T02:33:11.083Z,0.00
2023-03-22T02:34:11.142Z,0.00
2023-03-22T02:35:11.146Z,0.00
2023-03-22T02:36:11.206Z,0.00
2023-03-22T02:37:11.235Z,0.00
2023-03-22T02:38:11.297Z,0.00
2023-03-22T02:39:11.375Z,0.00
2023-03-22T02:40:11.372Z,0.00
2023-03-22T02:41:11.440Z,0.00
2023-03-22T02:42:11.469Z,0.00
2023-03-22T02:43:11.518Z,0.00
2023-03-22T02:44:11.595Z,0.00
2023-03-22T02:45:18.421Z,0.00
2023-03-22T02:46:18.440Z,0.00
2023-03-22T02:47:18.419Z,0.00
2023-03-22T02:48:14.858Z,0.00
2023-03-22T02:49:11.814Z,0.00
2023-03-22T02:50:11.862Z,0.00
2023-03-22T02:51:11.886Z,0.00
2023-03-22T02:52:14.919Z,0.00
2023-03-22T02:53:14.947Z,0.00
2023-03-22T02:54:14.957Z,0.00
2023-03-22T02:55:15.000Z,0.00
2023-03-22T02:56:15.026Z,0.00
2023-03-22T02:57:15.053Z,0.00
2023-03-22T02:58:15.077Z,0.00
2023-03-22T02:59:15.144Z,0.00
2023-03-22T03:00:15.113Z,0.00
2023-03-22T03:01:15.196Z,0.00
2023-03-22T03:02:15.227Z,0.00
2023-03-22T03:03:15.188Z,0.00
2023-03-22T03:04:12.471Z,0.00
2023-03-22T03:05:12.514Z,0.00
2023-03-22T03:06:12.596Z,0.00
2023-03-22T03:07:12.607Z,0.00
2023-03-22T03:08:12.642Z,0.00
2023-03-22T03:09:12.702Z,0.00
2023-03-22T03:10:12.745Z,0.00
2023-03-22T03:11:12.828Z,0.00
2023-03-22T03:12:12.828Z,0.00
2023-03-22T03:13:12.878Z,0.00
2023-03-22T03:14:12.947Z,0.00
2023-03-22T03:15:15.389Z,0.00
2023-03-22T03:16:13.035Z,0.00
2023-03-22T03:17:13.100Z,0.00
2023-03-22T03:18:13.111Z,0.00
2023-03-22T03:19:13.141Z,0.00
2023-03-22T03:20:13.196Z,0.00
2023-03-22T03:21:13.230Z,0.00
2023-03-22T03:22:13.318Z,0.00
2023-03-22T03:23:13.330Z,0.00
2023-03-22T03:24:13.390Z,0.00
2023-03-22T03:25:15.671Z,0.00
2023-03-22T03:26:13.462Z,0.00
2023-03-22T03:27:13.535Z,0.00
2023-03-22T03:28:13.579Z,0.00
2023-03-22T03:29:13.586Z,0.00
2023-03-22T03:30:13.638Z,0.00
2023-03-22T03:31:13.698Z,0.00
2023-03-22T03:32:13.762Z,0.00
2023-03-22T03:33:13.777Z,0.00
2023-03-22T03:34:13.825Z,0.00
2023-03-22T03:35:13.858Z,0.00
2023-03-22T03:36:13.913Z,0.00
2023-03-22T03:37:13.973Z,0.00
2023-03-22T03:38:14.028Z,0.00
2023-03-22T03:39:14.037Z,0.00
2023-03-22T03:40:14.098Z,0.00
2023-03-22T03:41:14.144Z,0.00
2023-03-22T03:42:14.208Z,0.00
2023-03-22T03:43:14.249Z,0.00
2023-03-22T03:44:14.265Z,0.00
2023-03-22T03:45:14.360Z,0.00
2023-03-22T03:46:14.395Z,0.00
2023-03-22T03:47:14.433Z,0.00
2023-03-22T03:48:14.485Z,0.00
2023-03-22T03:49:14.508Z,0.00
2023-03-22T03:50:14.531Z,0.00
2023-03-22T03:51:14.587Z,0.00
2023-03-22T03:52:14.893Z,0.00
2023-03-22T03:53:14.695Z,0.00
2023-03-22T03:54:14.941Z,0.00
2023-03-22T03:55:14.777Z,0.00
2023-03-22T03:56:14.798Z,0.00
2023-03-22T03:57:14.885Z,0.00
2023-03-22T03:58:14.889Z,0.00
2023-03-22T03:59:14.970Z,0.00
2023-03-22T04:00:14.987Z,0.00
2023-03-22T04:01:15.032Z,0.00
2023-03-22T04:02:15.112Z,0.00
2023-03-22T04:03:15.152Z,0.00
2023-03-22T04:04:15.197Z,0.00
2023-03-22T04:05:15.218Z,0.00
2023-03-22T04:06:15.271Z,0.00
2023-03-22T04:07:15.300Z,0.00
2023-03-22T04:08:15.380Z,0.00
2023-03-22T04:09:15.408Z,0.00
2023-03-22T04:10:15.433Z,0.00
2023-03-22T04:11:15.467Z,0.00
2023-03-22T04:12:15.562Z,0.00
2023-03-22T04:13:15.572Z,0.00
2023-03-22T04:14:15.612Z,0.00
2023-03-22T04:15:15.681Z,0.00
2023-03-22T04:16:15.714Z,0.00
2023-03-22T04:17:15.740Z,0.00
2023-03-22T04:18:15.789Z,0.00
2023-03-22T04:19:15.826Z,0.00
2023-03-22T04:20:15.897Z,0.00
2023-03-22T04:21:18.178Z,0.00
2023-03-22T04:22:15.995Z,0.00
2023-03-22T04:23:18.942Z,0.00
2023-03-22T04:24:16.076Z,0.00
2023-03-22T04:25:18.324Z,0.00
2023-03-22T04:26:16.146Z,0.00
2023-03-22T04:27:18.286Z,0.00
2023-03-22T04:28:18.371Z,0.00
2023-03-22T04:29:18.303Z,0.00
2023-03-22T04:30:18.343Z,0.00
2023-03-22T04:31:16.388Z,0.00
2023-03-22T04:32:16.418Z,0.00
2023-03-22T04:33:16.482Z,0.00
2023-03-22T04:34:16.509Z,0.00
2023-03-22T04:35:16.632Z,0.00
2023-03-22T04:36:16.588Z,0.00
2023-03-22T04:37:16.665Z,0.00
2023-03-22T04:38:16.671Z,0.00
2023-03-22T04:39:18.488Z,0.00
2023-03-22T04:40:16.780Z,0.00
2023-03-22T04:41:18.551Z,0.00
2023-03-22T04:42:16.873Z,0.00
2023-03-22T04:43:16.925Z,0.00
2023-03-22T04:44:16.964Z,0.00
2023-03-22T04:45:16.990Z,0.00
2023-03-22T04:46:17.082Z,0.00
2023-03-22T04:47:18.683Z,0.00
2023-03-22T04:48:18.750Z,0.00
2023-03-22T04:49:17.179Z,0.00
2023-03-22T04:50:18.750Z,0.00
2023-03-22T04:51:17.246Z,0.00
2023-03-22T04:52:18.816Z,0.00
2023-03-22T04:53:18.842Z,0.00
2023-03-22T04:54:17.409Z,0.00
2023-03-22T04:55:17.433Z,0.00
2023-03-22T04:56:17.471Z,0.00
2023-03-22T04:57:17.532Z,0.00
2023-03-22T04:58:18.946Z,0.00
2023-03-22T04:59:17.639Z,0.00
2023-03-22T05:00:17.805Z,0.00
2023-03-22T05:01:17.834Z,0.00
2023-03-22T05:02:17.850Z,0.00
2023-03-22T05:03:19.062Z,0.00
2023-03-22T05:04:19.091Z,0.00
2023-03-22T05:05:19.087Z,0.00
2023-03-22T05:06:17.910Z,0.00
2023-03-22T05:07:18.078Z,0.00
2023-03-22T05:08:17.998Z,0.00
2023-03-22T05:09:18.063Z,0.00
2023-03-22T05:10:18.129Z,0.00
2023-03-22T05:11:18.124Z,0.00
2023-03-22T05:12:19.330Z,0.00
2023-03-22T05:13:18.217Z,0.00
2023-03-22T05:14:19.317Z,5.63
2023-03-22T05:15:19.292Z,5.63
2023-03-22T05:16:19.358Z,5.63
2023-03-22T05:17:18.388Z,5.63
2023-03-22T05:18:18.444Z,5.63
2023-03-22T05:19:18.563Z,11.25
2023-03-22T05:20:18.620Z,11.25
2023-03-22T05:21:19.639Z,11.25
2023-03-22T05:22:18.637Z,11.25
2023-03-22T05:23:18.655Z,16.88
2023-03-22T05:24:18.717Z,16.88
2023-03-22T05:25:19.510Z,16.88
2023-03-22T05:26:18.814Z,16.88
2023-03-22T05:27:18.829Z,22.50
2023-03-22T05:28:18.876Z,22.50
2023-03-22T05:29:19.186Z,22.50
2023-03-22T05:30:19.038Z,28.13
2023-03-22T05:31:19.339Z,28.13
2023-03-22T05:32:19.174Z,28.13
2023-03-22T05:33:20.960Z,33.75
2023-03-22T05:34:19.967Z,33.75
2023-03-22T05:35:19.222Z,39.38
2023-03-22T05:36:19.236Z,39.38
2023-03-22T05:37:19.900Z,39.38
2023-03-22T05:38:19.408Z,45.00
2023-03-22T05:39:19.529Z,45.00
2023-03-22T05:40:20.120Z,50.63
2023-03-22T05:41:19.732Z,50.63
2023-03-22T05:42:21.589Z,50.63
2023-03-22T05:43:22.493Z,56.25
2023-03-22T05:44:33.453Z,56.25
2023-03-22T05:45:30.577Z,61.88
2023-03-22T05:46:20.471Z,61.88
2023-03-22T05:47:21.450Z,67.50
2023-03-22T05:48:20.040Z,67.50
2023-03-22T05:49:19.809Z,73.13
2023-03-22T05:50:19.901Z,73.13
2023-03-22T05:51:19.888Z,73.13
2023-03-22T05:52:19.927Z,78.75
2023-03-22T05:53:19.981Z,78.75
2023-03-22T05:54:20.037Z,84.38
2023-03-22T05:55:20.104Z,84.38
2023-03-22T05:56:20.138Z,90.00
2023-03-22T05:57:20.188Z,90.00
2023-03-22T05:58:20.208Z,95.63
2023-03-22T05:59:20.245Z,95.63
2023-03-22T06:00:20.316Z,101.25
2023-03-22T06:01:20.412Z,101.25
2023-03-22T06:02:20.406Z,106.88
2023-03-22T06:03:20.434Z,106.88
2023-03-22T06:04:21.854Z,112.50
2023-03-22T06:05:20.515Z,112.50
2023-03-22T06:06:20.586Z,118.13
2023-03-22T06:07:20.600Z,118.13
2023-03-22T06:08:20.638Z,118.13
2023-03-22T06:09:20.685Z,123.75
2023-03-22T06:10:20.727Z,123.75
2023-03-22T06:11:20.792Z,129.38
2023-03-22T06:12:20.819Z,129.38
2023-03-22T06:13:20.907Z,135.00
2023-03-22T06:14:20.905Z,135.00
2023-03-22T06:15:20.959Z,140.63
2023-03-22T06:16:21.025Z,140.63
2023-03-22T06:17:21.059Z,146.25
2023-03-22T06:18:21.110Z,146.25
2023-03-22T06:19:21.118Z,151.88
2023-03-22T06:20:21.214Z,151.88
2023-03-22T06:21:21.212Z,157.50
2023-03-22T06:22:21.266Z,163.13
2023-03-22T06:23:21.300Z,174.38
2023-03-22T06:24:21.381Z,174.38
2023-03-22T06:25:21.385Z,174.38
2023-03-22T06:26:21.439Z,185.63
2023-03-22T06:27:21.473Z,180.00
2023-03-22T06:28:21.555Z,180.00
2023-03-22T06:29:21.562Z,191.25
2023-03-22T06:30:21.648Z,202.50
2023-03-22T06:31:21.744Z,208.13
2023-03-22T06:32:21.697Z,202.50
2023-03-22T06:33:21.760Z,213.75
2023-03-22T06:34:21.811Z,208.13
2023-03-22T06:35:21.906Z,219.38
2023-03-22T06:36:21.920Z,202.50
2023-03-22T06:37:22.019Z,202.50
2023-03-22T06:38:21.986Z,202.50
2023-03-22T06:39:22.013Z,236.25
2023-03-22T06:40:22.075Z,298.13
2023-03-22T06:41:22.210Z,286.88
2023-03-22T06:42:22.139Z,241.88
2023-03-22T06:43:22.203Z,241.88
2023-03-22T06:44:22.222Z,331.88
2023-03-22T06:45:22.312Z,388.13
2023-03-22T06:46:22.448Z,393.75
2023-03-22T06:47:22.426Z,326.25
2023-03-22T06:48:22.438Z,298.13
2023-03-22T06:49:22.457Z,360.00
2023-03-22T06:50:22.487Z,388.13
2023-03-22T06:51:22.569Z,348.75
2023-03-22T06:52:22.595Z,298.13
2023-03-22T06:53:22.636Z,298.13
2023-03-22T06:54:22.670Z,298.13
2023-03-22T06:55:22.760Z,410.63
2023-03-22T06:56:22.786Z,444.38
2023-03-22T06:57:22.819Z,388.13
2023-03-22T06:58:22.852Z,315.00
2023-03-22T06:59:22.907Z,292.50
2023-03-22T07:00:22.975Z,326.25
2023-03-22T07:01:23.048Z,399.38
2023-03-22T07:02:23.064Z,478.13
2023-03-22T07:03:23.085Z,545.63
2023-03-22T07:04:23.151Z,551.25
2023-03-22T07:05:23.184Z,556.88
2023-03-22T07:06:23.220Z,551.25
2023-03-22T07:07:23.316Z,556.88
2023-03-22T07:08:23.321Z,556.88
2023-03-22T07:09:23.369Z,551.25
2023-03-22T07:10:23.413Z,556.88
2023-03-22T07:11:23.450Z,556.88
2023-03-22T07:12:23.537Z,568.13
2023-03-22T07:13:23.547Z,579.38
2023-03-22T07:14:23.607Z,601.88
2023-03-22T07:15:23.680Z,635.63
2023-03-22T07:16:23.986Z,675.00
2023-03-22T07:17:23.739Z,765.00
2023-03-22T07:18:23.796Z,1096.88
2023-03-22T07:19:23.834Z,1535.63
2023-03-22T07:20:23.976Z,1569.38
2023-03-22T07:21:23.938Z,1659.38
2023-03-22T07:22:23.989Z,1771.88
2023-03-22T07:23:24.026Z,1603.13
2023-03-22T07:24:24.096Z,1327.50
2023-03-22T07:25:24.217Z,1305.00
2023-03-22T07:26:24.181Z,1333.13
2023-03-22T07:27:24.233Z,1541.25
2023-03-22T07:28:24.286Z,1575.00
2023-03-22T07:29:24.316Z,1383.75
2023-03-22T07:30:24.439Z,1440.00
2023-03-22T07:31:24.414Z,1496.25
2023-03-22T07:32:24.563Z,1704.38
2023-03-22T07:33:24.512Z,1828.13
2023-03-22T07:34:24.602Z,1642.50
2023-03-22T07:35:26.887Z,1575.00
2023-03-22T07:36:24.687Z,1586.25
2023-03-22T07:37:24.758Z,1636.88
2023-03-22T07:38:24.798Z,1603.13
2023-03-22T07:39:24.859Z,1614.38
2023-03-22T07:40:24.979Z,1861.88
2023-03-22T07:41:24.936Z,1890.00
2023-03-22T07:42:25.070Z,1586.25
2023-03-22T07:43:25.045Z,1462.50
2023-03-22T07:44:25.102Z,1029.38
2023-03-22T07:45:25.264Z,1383.75
2023-03-22T07:46:25.228Z,1771.88
2023-03-22T07:47:39.972Z,1698.75
2023-03-22T07:48:25.306Z,1794.38
2023-03-22T07:49:25.336Z,1895.63
2023-03-22T07:50:25.416Z,1805.63
2023-03-22T07:51:25.422Z,1535.63
2023-03-22T07:52:25.471Z,1608.75
2023-03-22T07:53:25.526Z,1715.63
2023-03-22T07:54:33.406Z,1788.75
2023-03-22T07:55:25.682Z,1749.38
2023-03-22T07:56:25.713Z,1777.50
2023-03-22T07:57:25.750Z,1721.25
2023-03-22T07:58:25.783Z,1541.25
2023-03-22T07:59:25.828Z,1535.63
2023-03-22T08:00:25.892Z,1676.25
2023-03-22T08:01:25.928Z,1800.00
2023-03-22T08:02:25.988Z,1918.13
2023-03-22T08:03:26.099Z,1951.88
2023-03-22T08:04:26.066Z,1946.25
2023-03-22T08:05:26.173Z,1991.25
2023-03-22T08:06:26.176Z,1861.88
2023-03-22T08:07:26.252Z,1732.50
2023-03-22T08:08:26.276Z,1783.13
2023-03-22T08:09:26.340Z,1850.63
2023-03-22T08:10:26.430Z,2070.00
2023-03-22T08:11:26.426Z,2188.13
2023-03-22T08:12:26.497Z,2210.63
2023-03-22T08:13:26.537Z,1631.25
2023-03-22T08:14:35.953Z,1378.13
2023-03-22T08:15:26.660Z,1614.38
2023-03-22T08:16:26.751Z,1845.00
2023-03-22T08:17:26.733Z,1715.63
2023-03-22T08:18:27.505Z,1012.50
2023-03-22T08:19:26.866Z,1102.50
2023-03-22T08:20:26.912Z,1113.75
2023-03-22T08:21:26.937Z,2356.88
2023-03-22T08:22:27.024Z,2227.50
2023-03-22T08:23:40.428Z,2227.50
2023-03-22T08:24:27.167Z,2356.88
2023-03-22T08:25:27.259Z,2430.00
2023-03-22T08:26:27.219Z,2385.00
2023-03-22T08:27:27.302Z,2300.63
2023-03-22T08:28:27.330Z,2199.38
2023-03-22T08:29:27.384Z,2272.50
2023-03-22T08:30:27.584Z,2536.88
2023-03-22T08:31:27.499Z,2475.00
2023-03-22T08:32:27.537Z,2098.13
2023-03-22T08:33:27.594Z,1985.63
2023-03-22T08:34:27.651Z,1974.38
2023-03-22T08:35:27.712Z,1845.00
2023-03-22T08:36:27.747Z,1693.13
2023-03-22T08:37:28.523Z,1665.00
2023-03-22T08:38:27.856Z,1687.50
2023-03-22T08:39:27.918Z,1704.38
2023-03-22T08:40:28.057Z,1760.63
2023-03-22T08:41:28.040Z,1766.25
2023-03-22T08:42:30.292Z,1721.25
2023-03-22T08:43:30.297Z,1873.13
2023-03-22T08:44:30.991Z,2103.75
2023-03-22T08:45:29.756Z,2188.13
2023-03-22T08:46:29.923Z,2311.88
2023-03-22T08:47:29.813Z,2553.75
2023-03-22T08:48:29.836Z,2598.75
2023-03-22T08:49:30.035Z,2491.88
2023-03-22T08:50:29.907Z,2576.25
2023-03-22T08:51:29.927Z,2756.25
2023-03-22T08:52:29.965Z,2970.00
2023-03-22T08:53:29.984Z,3105.00
2023-03-22T08:54:32.214Z,3110.63
2023-03-22T08:55:30.039Z,3195.00
2023-03-22T08:56:29.985Z,3391.88
2023-03-22T08:57:30.025Z,3555.00
2023-03-22T08:58:30.047Z,3273.75
2023-03-22T08:59:30.093Z,3178.13
2023-03-22T09:00:39.252Z,2621.25
2023-03-22T09:01:30.263Z,2655.00
2023-03-22T09:02:30.203Z,2812.50
2023-03-22T09:03:30.173Z,2908.13
2023-03-22T09:04:30.284Z,2992.50
2023-03-22T09:05:30.231Z,2975.63
2023-03-22T09:06:30.244Z,2514.38
2023-03-22T09:07:30.417Z,1940.63
2023-03-22T09:08:30.292Z,1434.38
2023-03-22T09:09:30.328Z,1670.63
2023-03-22T09:10:30.466Z,1518.75
2023-03-22T09:11:32.533Z,2334.38
2023-03-22T09:12:30.449Z,3116.25
2023-03-22T09:13:30.387Z,3048.75
2023-03-22T09:14:30.353Z,2947.50
2023-03-22T09:15:30.388Z,3206.25
2023-03-22T09:16:30.440Z,3285.00
2023-03-22T09:17:30.411Z,3493.13
2023-03-22T09:18:30.438Z,3498.75
2023-03-22T09:19:30.481Z,3442.50
2023-03-22T09:20:30.483Z,3369.38
2023-03-22T09:21:30.532Z,3330.00
2023-03-22T09:22:30.503Z,3290.63
2023-03-22T09:23:30.540Z,3268.13
2023-03-22T09:24:30.206Z,3200.63
2023-03-22T09:25:30.245Z,3206.25
2023-03-22T09:26:30.331Z,3217.50
2023-03-22T09:27:31.000Z,3352.50
2023-03-22T09:28:30.495Z,3577.50
2023-03-22T09:29:30.456Z,3774.38
2023-03-22T09:30:31.546Z,3791.25
2023-03-22T09:31:30.602Z,3555.00
2023-03-22T09:32:30.624Z,3391.88
2023-03-22T09:33:30.670Z,3481.88
2023-03-22T09:34:30.707Z,3521.25
2023-03-22T09:35:30.809Z,3459.38
2023-03-22T09:36:30.817Z,3397.50
2023-03-22T09:37:30.872Z,3183.75
2023-03-22T09:38:30.998Z,2975.63
2023-03-22T09:39:31.031Z,2531.25
2023-03-22T09:40:31.036Z,3481.88
2023-03-22T09:41:31.138Z,1569.38
2023-03-22T09:42:31.178Z,1642.50
2023-03-22T09:43:33.115Z,1597.50
2023-03-22T09:44:31.367Z,1788.75
2023-03-22T09:45:31.432Z,1586.25
2023-03-22T09:46:31.432Z,1828.13
2023-03-22T09:47:43.958Z,2008.13
2023-03-22T09:48:31.571Z,1108.13
2023-03-22T09:49:38.439Z,911.25
2023-03-22T09:50:31.689Z,787.50
2023-03-22T09:51:31.642Z,916.88
2023-03-22T09:52:31.724Z,832.50
2023-03-22T09:53:31.748Z,1260.00
2023-03-22T09:54:31.766Z,1040.63
2023-03-22T09:55:31.854Z,776.25
2023-03-22T09:56:31.866Z,1406.25
2023-03-22T09:57:31.930Z,2919.38
2023-03-22T09:58:31.991Z,2137.50
2023-03-22T09:59:32.029Z,1237.50
2023-03-22T10:00:32.215Z,1456.88
2023-03-22T10:01:32.303Z,2092.50
2023-03-22T10:02:32.234Z,2351.25
2023-03-22T10:03:32.240Z,1777.50
2023-03-22T10:04:32.353Z,1226.25
2023-03-22T10:05:32.442Z,1046.25
2023-03-22T10:06:32.402Z,1113.75
2023-03-22T10:07:32.463Z,1597.50
2023-03-22T10:08:32.500Z,1530.00
2023-03-22T10:09:32.578Z,2002.50
2023-03-22T10:10:32.610Z,2958.75
2023-03-22T10:11:32.739Z,3498.75
2023-03-22T10:12:32.761Z,3870.00
2023-03-22T10:13:32.801Z,4089.38
2023-03-22T10:14:32.851Z,3976.88
2023-03-22T10:15:32.954Z,3976.88
2023-03-22T10:16:33.002Z,2565.00
2023-03-22T10:17:33.025Z,2340.00
2023-03-22T10:18:33.061Z,3009.38
2023-03-22T10:19:33.062Z,3459.38
2023-03-22T10:20:33.210Z,3487.50
2023-03-22T10:21:33.239Z,3695.63
2023-03-22T10:22:33.250Z,3594.38
2023-03-22T10:23:33.338Z,3976.88
2023-03-22T10:24:33.385Z,4016.25
2023-03-22T10:25:33.423Z,4095.00
2023-03-22T10:26:33.441Z,3363.75
2023-03-22T10:27:33.494Z,3358.13
2023-03-22T10:28:33.577Z,3436.88
2023-03-22T10:29:33.598Z,2272.50
2023-03-22T10:30:33.656Z,2784.38
2023-03-22T10:31:33.870Z,3172.50
2023-03-22T10:32:33.756Z,3003.75
2023-03-22T10:33:33.823Z,2272.50
2023-03-22T10:34:33.892Z,2109.38
2023-03-22T10:35:34.012Z,2317.50
2023-03-22T10:36:33.961Z,3245.63
2023-03-22T10:37:34.003Z,3285.00
2023-03-22T10:38:34.069Z,3898.13
2023-03-22T10:39:34.121Z,3802.50
2023-03-22T10:40:34.193Z,3875.63
2023-03-22T10:41:34.225Z,4145.63
2023-03-22T10:42:34.271Z,4151.25
2023-03-22T10:43:34.329Z,3875.63
2023-03-22T10:44:34.386Z,3886.88
2023-03-22T10:45:34.532Z,4016.25
2023-03-22T10:46:34.512Z,4033.13
2023-03-22T10:47:34.549Z,3954.38
2023-03-22T10:48:34.641Z,3346.88
2023-03-22T10:49:34.646Z,4336.88
2023-03-22T10:50:34.722Z,4415.63
2023-03-22T10:51:34.754Z,4398.75
2023-03-22T10:52:34.806Z,4179.38
2023-03-22T10:53:34.859Z,4134.38
2023-03-22T10:54:34.903Z,4320.00
2023-03-22T10:55:34.989Z,4314.38
2023-03-22T10:56:35.010Z,4016.25
2023-03-22T10:57:35.072Z,3729.38
2023-03-22T10:58:35.118Z,3706.88
2023-03-22T10:59:35.179Z,3903.75
2023-03-22T11:00:37.208Z,3926.25
2023-03-22T11:01:35.332Z,3886.88
2023-03-22T11:02:35.437Z,4134.38
2023-03-22T11:03:35.399Z,4218.75
2023-03-22T11:04:35.443Z,4140.00
2023-03-22T11:05:35.514Z,4415.63
2023-03-22T11:06:36.059Z,4556.25
2023-03-22T11:07:35.631Z,4145.63
2023-03-22T11:08:35.654Z,3943.13
2023-03-22T11:09:35.710Z,3886.88
2023-03-22T11:10:35.821Z,3841.88
2023-03-22T11:11:35.812Z,3813.75
2023-03-22T11:12:36.333Z,3836.25
2023-03-22T11:13:35.920Z,3510.00
2023-03-22T11:14:35.987Z,3183.75
2023-03-22T11:15:36.118Z,3088.13
2023-03-22T11:16:36.176Z,2958.75
2023-03-22T11:17:36.150Z,2885.63
2023-03-22T11:18:37.070Z,2992.50
2023-03-22T11:19:36.268Z,3363.75
2023-03-22T11:20:36.356Z,3386.25
2023-03-22T11:21:36.422Z,3088.13
2023-03-22T11:22:36.444Z,3121.88
2023-03-22T11:23:36.462Z,3116.25
2023-03-22T11:24:36.567Z,3583.13
2023-03-22T11:25:36.634Z,3931.88
2023-03-22T11:26:39.203Z,3886.88
2023-03-22T11:27:36.771Z,3808.13
2023-03-22T11:28:36.771Z,4010.63
2023-03-22T11:29:36.809Z,4055.63
2023-03-22T11:30:36.918Z,4050.00
2023-03-22T11:31:36.919Z,4016.25
2023-03-22T11:32:36.997Z,3830.63
2023-03-22T11:33:37.119Z,3763.13
2023-03-22T11:34:37.068Z,3611.25
2023-03-22T11:35:37.159Z,3532.50
2023-03-22T11:36:37.144Z,3628.13
2023-03-22T11:37:37.220Z,3701.25
2023-03-22T11:38:37.305Z,3684.38
2023-03-22T11:39:37.322Z,3813.75
2023-03-22T11:40:37.423Z,4100.63
2023-03-22T11:41:37.423Z,4308.75
2023-03-22T11:42:42.375Z,4269.38
2023-03-22T11:43:37.563Z,4314.38
2023-03-22T11:44:37.595Z,4055.63
2023-03-22T11:45:37.742Z,3976.88
2023-03-22T11:46:37.872Z,3999.38
2023-03-22T11:47:37.896Z,3718.13
2023-03-22T11:48:37.977Z,3650.63
2023-03-22T11:49:37.908Z,3903.75
2023-03-22T11:50:44.587Z,3965.63
2023-03-22T11:51:38.004Z,3915.00
2023-03-22T11:52:38.083Z,3864.38
2023-03-22T11:53:38.134Z,3723.75
2023-03-22T11:54:45.126Z,3802.50
2023-03-22T11:55:45.128Z,3751.88
2023-03-22T11:56:45.123Z,3616.88
2023-03-22T11:57:45.080Z,3448.13
2023-03-22T11:58:45.087Z,3555.00
2023-03-22T11:59:45.071Z,3729.38
2023-03-22T12:00:45.097Z,3751.88
2023-03-22T12:01:45.079Z,3780.00
2023-03-22T12:02:45.142Z,3588.75
2023-03-22T12:03:45.688Z,3571.88
2023-03-22T12:04:45.579Z,3763.13
2023-03-22T12:05:45.601Z,3931.88
2023-03-22T12:06:45.591Z,4050.00
2023-03-22T12:07:45.585Z,4224.38
2023-03-22T12:08:41.915Z,3999.38
2023-03-22T12:09:41.982Z,3875.63
2023-03-22T12:10:41.962Z,4083.75
2023-03-22T12:11:42.029Z,3729.38
2023-03-22T12:12:42.038Z,3240.00
2023-03-22T12:13:42.078Z,3324.38
2023-03-22T12:14:46.125Z,3448.13
2023-03-22T12:15:42.273Z,3127.50
2023-03-22T12:16:46.149Z,2941.88
2023-03-22T12:17:42.183Z,2981.25
2023-03-22T12:18:42.151Z,3155.63
2023-03-22T12:19:42.170Z,3369.38
2023-03-22T12:20:42.518Z,3330.00
2023-03-22T12:21:42.192Z,3268.13
2023-03-22T12:22:42.226Z,3375.00
2023-03-22T12:23:42.240Z,3431.25
2023-03-22T12:24:43.040Z,3493.13
2023-03-22T12:25:42.597Z,3571.88
2023-03-22T12:26:42.329Z,3667.50
2023-03-22T12:27:42.347Z,3718.13
2023-03-22T12:28:42.587Z,3858.75
2023-03-22T12:29:42.408Z,3864.38
2023-03-22T12:30:43.180Z,3639.38
2023-03-22T12:31:42.523Z,3375.00
2023-03-22T12:32:42.492Z,3352.50
2023-03-22T12:33:43.105Z,3228.75
2023-03-22T12:34:43.094Z,3465.00
2023-03-22T12:35:42.803Z,3403.13
2023-03-22T12:36:43.100Z,3324.38
2023-03-22T12:37:42.578Z,3335.63
2023-03-22T12:38:42.638Z,3195.00
2023-03-22T12:39:42.649Z,3375.00